Quibdo, Quibdo El Carano (SKUI)

NameQuibdo El Carano
CityQuibdo
CountryColombia
ICAOSKUI
IATAUIB
Altitude62 m
CoordinatesGoogle Map
Live Air TrafficLiveATC.net
METARSKUI 251700Z 17010KT 9999 SCT015 30/23 A2986
2020-04-25 17:00:00 Wind: South-Southeast (170°) 5.14 m/s - Visibility: > 10000 m - Temperature: 30 °C - Dew point: 23 °C - Humidity: 66.1% - Pressure: 1011.18 hPa

Sorry, no flights used the airport in this database.